Trabzon International Airport Trabzon TR
ICAO: LTCG
IATA: TZX
Category: Large
Scheduled Services: Yes

Elevation: 104 ft
TransAlt. 12000 ft.

Airport Communications:
APP:120.1
GND:121.9
TWR:120.1

LTCG Zoom In..

If you have problems with the map follow the link
https://www.worldairports.se/pages/airport.php?
ICAO=LTCG

Runways:

(A) RW 11 length 8661 ft width 148 ft
ILS 109.10 / hdg 107

(B) RW 29 length 8661 ft width 148 ft
---- / hdg 287

Location; LTCG
Day. 22 / Time. 12.20 Zulu
* QNH: 1019
* Temperature: 20° c. 68°f.
* Wind from: 310° Speed 10 kn.
Dewpoint: 16° c.
Visibility: 10 km or more.
Clouds: Few 1500 ft.
Clouds: Broken 2800 ft.
Clouds: Broken 1000 ft.
Conditions: Light Rain Showers. No significant changes expected in the near future.

LTCG 221220Z 31010KT 9999 -SHRA FEW015 BKN028 BKN100 20/16 Q1019 NOSIG


Wind From 310°
Speed 10 kn.

 
 
jpsmedia.com for Web Design worldairports.se 2018   terms of use